.
WxDataArchive / Data Records for 2010-09-27
2010-09-26 September 2010 2010-09-28

Data Records for Monday, 27 September 2010

Time	Temp	Chill	HIndex	Humid	Dewpt	 Wind 	HiWind	WindDir	Rain 	Barom 
-----	----	-----	------	-----	-----	------	------	-------	-----	----- 
00:00	51.1	51.1	51.1	72	42.4	0	1	90	0.00	30.067 
00:05	51.0	51.0	51.0	72	42.3	0	2	90	0.00	30.067 
00:10	50.8	50.8	50.8	73	42.5	0	2	90	0.00	30.067 
00:15	50.7	50.7	50.7	73	42.4	0	1	90	0.00	30.061 
00:20	50.5	50.5	50.5	73	42.2	0	3	90	0.00	30.061 
00:25	50.5	50.5	50.5	73	42.2	0	1	90	0.00	30.061 
00:30	50.4	50.4	50.4	73	42.1	0	2	90	0.00	30.060 
00:35	50.4	50.4	50.4	74	42.4	0	0	---	0.00	30.060 
00:40	50.1	50.1	50.1	74	42.1	0	0	---	0.00	30.060 
00:45	49.9	49.9	49.9	75	42.3	0	1	90	0.00	30.057 
00:50	49.8	49.8	49.8	75	42.2	0	0	---	0.00	30.057 
00:55	49.8	49.8	49.8	76	42.5	0	1	90	0.00	30.057 
01:00	49.6	49.6	49.6	76	42.3	0	1	90	0.00	30.056 
01:05	49.6	49.6	49.6	76	42.3	0	1	90	0.00	30.056 
01:10	49.6	49.6	49.6	77	42.7	0	1	90	0.00	30.056 
01:15	49.5	49.5	49.5	77	42.6	0	0	---	0.00	30.048 
01:20	49.5	49.5	49.5	77	42.6	0	2	90	0.00	30.048 
01:25	49.4	49.4	49.4	77	42.5	0	0	---	0.00	30.048 
01:30	49.2	49.2	49.2	77	42.3	0	0	---	0.00	30.043 
01:35	49.1	49.1	49.1	78	42.5	0	0	---	0.00	30.043 
01:40	49.1	49.1	49.1	79	42.9	0	0	---	0.00	30.043 
01:45	48.9	48.9	48.9	79	42.7	0	0	---	0.00	30.037 
01:50	48.8	48.8	48.8	80	42.9	0	0	---	0.00	30.037 
01:55	48.8	48.8	48.8	80	42.9	0	0	---	0.00	30.037 
02:00	48.6	48.6	48.6	81	43.0	0	0	---	0.00	30.037 
02:05	48.5	48.5	48.5	81	42.9	0	0	---	0.00	30.037 
02:10	48.5	48.5	48.5	81	42.9	0	0	---	0.00	30.037 
02:15	48.3	48.3	48.3	81	42.7	0	0	---	0.00	30.031 
02:20	48.3	48.3	48.3	82	43.1	0	0	---	0.00	30.031 
02:25	48.2	48.2	48.2	82	43.0	0	3	158	0.00	30.031 
02:30	48.2	48.2	48.2	82	43.0	0	0	---	0.00	30.037 
02:35	48.0	48.0	48.0	83	43.1	0	0	---	0.00	30.037 
02:40	48.0	48.0	48.0	83	43.1	0	0	---	0.00	30.037 
02:45	47.9	47.9	47.9	83	43.0	0	2	158	0.00	30.032 
02:50	47.9	47.9	47.9	83	43.0	0	0	---	0.00	30.032 
02:55	47.7	47.7	47.7	84	43.1	0	1	158	0.00	30.032 
03:00	47.7	47.7	47.7	84	43.1	0	1	158	0.00	30.026 
03:05	47.6	47.6	47.6	84	43.0	0	0	---	0.00	30.026 
03:10	47.6	47.6	47.6	84	43.0	0	2	158	0.00	30.026 
03:15	47.4	47.4	47.4	85	43.1	0	1	158	0.00	30.028 
03:20	47.4	47.4	47.4	85	43.1	0	0	---	0.00	30.028 
03:25	47.3	47.3	47.3	85	43.0	0	0	---	0.00	30.028 
03:30	47.1	47.1	47.1	85	42.8	0	0	---	0.00	30.029 
03:35	47.3	47.3	47.3	86	43.3	0	0	---	0.00	30.029 
03:40	47.3	47.3	47.3	86	43.3	0	0	---	0.00	30.029 
03:45	47.1	47.1	47.1	86	43.1	0	0	---	0.00	30.027 
03:50	47.1	47.1	47.1	86	43.1	0	0	---	0.00	30.027 
03:55	47.0	47.0	47.0	86	43.0	0	0	---	0.00	30.027 
04:00	46.8	46.8	46.8	87	43.1	0	0	---	0.00	30.027 
04:05	46.8	46.8	46.8	87	43.1	0	0	---	0.00	30.027 
04:10	47.0	47.0	47.0	88	43.6	0	1	158	0.00	30.027 
04:15	47.0	47.0	47.0	88	43.6	0	0	---	0.00	30.015 
04:20	46.8	46.8	46.8	88	43.4	0	0	---	0.00	30.015 
04:25	46.8	46.8	46.8	88	43.4	0	1	158	0.00	30.015 
04:30	47.0	47.0	47.0	88	43.6	0	1	158	0.00	30.010 
04:35	47.0	47.0	47.0	88	43.6	0	1	158	0.00	30.010 
04:40	47.0	47.0	47.0	88	43.6	0	0	---	0.00	30.010 
04:45	47.0	47.0	47.0	88	43.6	0	0	---	0.00	30.004 
04:50	47.0	47.0	47.0	89	43.9	0	0	---	0.00	30.004 
04:55	46.8	46.8	46.8	89	43.7	0	1	158	0.00	30.004 
05:00	46.8	46.8	46.8	89	43.7	0	0	---	0.00	29.998 
05:05	46.8	46.8	46.8	89	43.7	0	0	---	0.00	29.998 
05:10	46.8	46.8	46.8	89	43.7	0	1	158	0.00	29.998 
05:15	46.8	46.8	46.8	89	43.7	0	0	---	0.00	30.003 
05:20	46.8	46.8	46.8	89	43.7	0	0	---	0.00	30.003 
05:25	46.8	46.8	46.8	89	43.7	0	0	---	0.00	30.003 
05:30	46.8	46.8	46.8	89	43.7	0	1	158	0.00	29.999 
05:35	46.8	46.8	46.8	89	43.7	0	1	158	0.00	29.999 
05:40	46.8	46.8	46.8	90	44.0	0	1	158	0.00	29.999 
05:45	46.8	46.8	46.8	90	44.0	0	0	---	0.00	29.999 
05:50	46.7	46.7	46.7	90	43.9	0	0	---	0.00	29.999 
05:55	46.7	46.7	46.7	90	43.9	0	1	158	0.00	29.999 
06:00	46.7	46.7	46.7	90	43.9	0	0	---	0.00	29.997 
06:05	46.7	46.7	46.7	90	43.9	0	0	---	0.00	29.997 
06:10	46.7	46.7	46.7	90	43.9	0	1	158	0.00	29.997 
06:15	46.7	46.7	46.7	90	43.9	0	0	---	0.00	29.999 
06:20	46.7	46.7	46.7	90	43.9	0	0	---	0.00	29.999 
06:25	46.8	46.8	46.8	91	44.3	0	0	---	0.00	29.999 
06:30	46.8	46.8	46.8	91	44.3	0	0	---	0.00	29.999 
06:35	46.8	46.8	46.8	91	44.3	0	0	---	0.00	29.999 
06:40	46.8	46.8	46.8	91	44.3	0	0	---	0.00	29.999 
06:45	46.8	46.8	46.8	91	44.3	0	0	---	0.00	30.000 
06:50	46.7	46.7	46.7	91	44.2	0	0	---	0.00	30.000 
06:55	46.7	46.7	46.7	91	44.2	0	0	---	0.00	30.000 
07:00	46.7	46.7	46.7	91	44.2	0	0	---	0.00	29.999 
07:05	46.7	46.7	46.7	91	44.2	0	0	---	0.00	29.999 
07:10	46.5	46.5	46.5	91	44.0	0	0	---	0.00	29.999 
07:15	46.5	46.5	46.5	91	44.0	0	0	---	0.00	29.995 
07:20	46.5	46.5	46.5	91	44.0	0	0	---	0.00	29.995 
07:25	46.4	46.4	46.4	91	43.9	0	0	---	0.00	29.995 
07:30	46.4	46.4	46.4	92	44.2	0	0	---	0.00	29.994 
07:35	46.4	46.4	46.4	92	44.2	0	0	---	0.00	29.994 
07:40	46.4	46.4	46.4	92	44.2	0	0	---	0.00	29.994 
07:45	46.4	46.4	46.4	92	44.2	0	0	---	0.00	30.005 
07:50	46.4	46.4	46.4	92	44.2	0	0	---	0.00	30.005 
07:55	46.2	46.2	46.2	92	44.0	0	0	---	0.00	30.005 
08:00	46.2	46.2	46.2	92	44.0	0	0	---	0.00	30.008 
08:05	46.1	46.1	46.1	92	43.9	0	0	---	0.00	30.008 
08:10	46.1	46.1	46.1	92	43.9	0	0	---	0.00	30.008 
08:15	46.1	46.1	46.1	92	43.9	0	0	---	0.00	30.006 
08:20	46.2	46.2	46.2	92	44.0	0	0	---	0.00	30.006 
08:25	46.2	46.2	46.2	92	44.0	0	0	---	0.00	30.006 
08:30	46.5	46.5	46.5	93	44.6	0	0	---	0.00	29.994 
08:35	46.8	46.8	46.8	93	44.9	0	0	---	0.00	29.994 
08:40	46.8	46.8	46.8	93	44.9	0	1	158	0.00	29.994 
08:45	47.0	47.0	47.0	93	45.1	0	1	158	0.00	29.989 
08:50	47.1	47.1	47.1	93	45.2	0	1	158	0.00	29.989 
08:55	47.4	47.4	47.4	93	45.5	0	0	---	0.00	29.989 
09:00	47.6	47.6	47.6	92	45.4	0	0	---	0.00	29.987 
09:05	47.9	47.9	47.9	93	46.0	0	0	---	0.00	29.987 
09:10	48.2	48.2	48.2	92	46.0	0	0	---	0.00	29.987 
09:15	48.5	48.5	48.5	92	46.3	0	0	---	0.00	29.992 
09:20	48.8	48.8	48.8	92	46.6	0	0	---	0.00	29.992 
09:25	49.1	49.1	49.1	92	46.9	0	0	---	0.00	29.992 
09:30	49.4	49.4	49.4	92	47.2	0	0	---	0.00	29.988 
09:35	49.6	49.6	49.6	91	47.1	0	2	270	0.00	29.988 
09:40	50.1	50.1	50.1	91	47.6	0	1	270	0.00	29.988 
09:45	50.4	50.4	50.4	90	47.6	0	2	270	0.00	29.991 
09:50	50.5	50.5	50.5	89	47.4	0	1	270	0.00	29.991 
09:55	50.7	50.7	50.7	88	47.3	0	1	270	0.00	29.991 
10:00	51.0	51.0	51.0	88	47.6	0	1	270	0.00	29.985 
10:05	51.3	51.3	51.3	88	47.9	0	1	270	0.00	29.985 
10:10	51.6	51.6	51.6	87	47.9	0	1	270	0.00	29.985 
10:15	51.9	51.9	51.9	86	47.8	0	1	270	0.00	29.981 
10:20	52.0	52.0	52.0	85	47.6	0	1	270	0.00	29.981 
10:25	52.2	52.2	52.2	85	47.8	0	2	270	0.00	29.981 
10:30	52.5	52.5	52.5	84	47.8	0	1	270	0.00	29.984 
10:35	52.6	52.6	52.6	83	47.6	0	2	270	0.00	29.984 
10:40	52.9	52.9	52.9	83	47.9	0	1	270	0.00	29.984 
10:45	53.2	53.2	53.2	82	47.8	0	2	270	0.00	29.979 
10:50	53.5	53.5	53.5	81	47.8	0	2	270	0.00	29.979 
10:55	54.1	54.1	54.1	81	48.4	0	2	270	0.00	29.979 
11:00	54.4	54.4	54.4	78	47.7	0	3	270	0.00	29.970 
11:05	54.8	54.8	54.8	78	48.1	0	1	270	0.00	29.970 
11:10	55.3	55.3	55.3	77	48.2	0	2	270	0.00	29.970 
11:15	55.7	55.7	55.7	77	48.6	0	2	270	0.00	29.962 
11:20	55.9	55.9	55.9	74	47.7	0	2	270	0.00	29.962 
11:25	56.6	56.6	56.6	76	49.1	0	1	270	0.00	29.962 
11:30	57.2	57.2	57.2	73	48.6	0	3	270	0.00	29.952 
11:35	58.0	58.0	58.0	72	49.0	0	2	270	0.00	29.952 
11:40	58.6	58.6	58.6	69	48.5	0	3	270	0.00	29.952 
11:45	59.2	59.2	59.2	68	48.6	0	1	68	0.00	29.954 
11:50	59.2	59.2	59.2	66	47.8	0	1	68	0.00	29.954 
11:55	59.5	59.5	59.5	66	48.1	1	3	68	0.00	29.954 
12:00	59.9	59.9	59.9	65	48.1	1	4	90	0.00	29.950 
12:05	60.2	60.2	60.2	65	48.4	1	5	90	0.00	29.950 
12:10	60.2	60.2	60.2	64	48.0	1	3	90	0.00	29.950 
12:15	60.1	60.1	60.1	65	48.3	0	4	270	0.00	29.941 
12:20	60.1	60.1	60.1	64	47.9	1	3	90	0.00	29.941 
12:25	60.2	60.2	60.2	64	48.0	1	5	68	0.00	29.941 
12:30	60.5	60.5	60.5	64	48.3	1	4	112	0.00	29.928 
12:35	60.5	60.5	60.5	63	47.8	0	1	112	0.00	29.928 
12:40	60.7	60.7	60.7	63	48.0	1	5	68	0.00	29.928 
12:45	60.5	60.5	60.5	63	47.8	0	4	135	0.00	29.924 
12:50	60.5	60.5	60.5	64	48.3	1	5	112	0.00	29.924 
12:55	60.7	60.7	60.7	63	48.0	0	2	112	0.00	29.924 
13:00	60.9	60.9	60.9	64	48.6	0	4	112	0.00	29.921 
13:05	60.9	60.9	60.9	64	48.6	0	3	112	0.00	29.921 
13:10	61.0	61.0	61.0	63	48.3	1	4	112	0.00	29.921 
13:15	61.2	61.2	61.2	62	48.1	1	3	112	0.00	29.915 
13:20	61.0	61.0	61.0	62	47.9	2	5	90	0.00	29.915 
13:25	61.0	61.0	61.0	63	48.3	1	4	90	0.00	29.915 
13:30	61.3	61.3	61.3	63	48.6	0	3	90	0.00	29.913 
13:35	61.8	61.8	61.8	61	48.2	1	4	90	0.00	29.913 
13:40	62.0	62.0	62.0	61	48.4	1	5	68	0.00	29.913 
13:45	61.6	61.6	61.6	60	47.6	0	2	112	0.00	29.916 
13:50	61.2	61.2	61.2	61	47.6	0	2	112	0.00	29.916 
13:55	60.7	60.7	60.7	62	47.6	0	1	112	0.00	29.916 
14:00	60.5	60.5	60.5	63	47.8	0	1	112	0.00	29.905 
14:05	60.4	60.4	60.4	63	47.7	0	1	112	0.00	29.905 
14:10	60.4	60.4	60.4	63	47.7	0	1	112	0.00	29.905 
14:15	60.4	60.4	60.4	63	47.7	0	1	112	0.00	29.899 
14:20	60.4	60.4	60.4	63	47.7	0	2	112	0.00	29.899 
14:25	60.5	60.5	60.5	64	48.3	0	3	112	0.00	29.899 
14:30	60.7	60.7	60.7	63	48.0	0	2	112	0.00	29.893 
14:35	60.7	60.7	60.7	65	48.9	0	2	112	0.00	29.893 
14:40	61.0	61.0	61.0	67	50.0	0	2	112	0.00	29.893 
14:45	61.2	61.2	61.2	67	50.2	0	2	112	0.00	29.883 
14:50	61.2	61.2	61.2	66	49.7	0	3	112	0.00	29.883 
14:55	61.3	61.3	61.3	66	49.8	1	4	112	0.00	29.883 
15:00	61.3	61.3	61.3	64	49.0	0	3	112	0.00	29.877 
15:05	61.2	61.2	61.2	64	48.9	0	2	90	0.00	29.877 
15:10	61.0	61.0	61.0	65	49.1	0	1	112	0.00	29.877 
15:15	61.0	61.0	61.0	65	49.1	0	2	112	0.00	29.871 
15:20	60.9	60.9	60.9	64	48.6	1	4	112	0.00	29.871 
15:25	60.7	60.7	60.7	64	48.4	1	3	112	0.00	29.871 
15:30	60.7	60.7	60.7	65	48.9	0	2	112	0.00	29.872 
15:35	60.5	60.5	60.5	65	48.7	1	6	112	0.00	29.872 
15:40	60.5	60.5	60.5	66	49.1	0	1	112	0.00	29.872 
15:45	60.7	60.7	60.7	67	49.7	0	1	112	0.00	29.871 
15:50	60.5	60.5	60.5	67	49.5	0	3	112	0.00	29.871 
15:55	60.2	60.2	60.2	69	50.0	0	3	112	0.00	29.871 
16:00	59.9	59.9	59.9	71	50.5	0	0	---	0.00	29.866 
16:05	59.8	59.8	59.8	71	50.4	0	1	112	0.00	29.866 
16:10	59.8	59.8	59.8	70	50.0	0	3	112	0.00	29.866 
16:15	59.8	59.8	59.8	71	50.4	0	3	45	0.00	29.861 
16:20	59.6	59.6	59.6	68	49.0	0	3	45	0.00	29.861 
16:25	59.6	59.6	59.6	66	48.2	0	3	90	0.00	29.861 
16:30	59.6	59.6	59.6	67	48.6	0	0	---	0.00	29.860 
16:35	59.6	59.6	59.6	66	48.2	0	2	90	0.00	29.860 
16:40	59.6	59.6	59.6	66	48.2	0	0	---	0.00	29.860 
16:45	59.6	59.6	59.6	66	48.2	0	1	90	0.00	29.856 
16:50	59.6	59.6	59.6	67	48.6	0	1	90	0.00	29.856 
16:55	59.6	59.6	59.6	65	47.8	0	1	90	0.00	29.856 
17:00	59.5	59.5	59.5	65	47.7	0	1	90	0.00	29.852 
17:05	59.5	59.5	59.5	65	47.7	0	1	90	0.00	29.852 
17:10	59.3	59.3	59.3	67	48.3	0	1	90	0.00	29.852 
17:15	59.2	59.2	59.2	69	49.0	0	1	90	0.00	29.852 
17:20	59.0	59.0	59.0	70	49.2	0	0	---	0.00	29.852 
17:25	58.9	58.9	58.9	70	49.1	0	2	90	0.00	29.852 
17:30	58.7	58.7	58.7	70	48.9	0	2	90	0.01	29.857 
17:35	58.6	58.6	58.6	73	50.0	0	0	---	0.00	29.857 
17:40	58.3	58.3	58.3	75	50.4	0	1	90	0.01	29.857 
17:45	58.0	58.0	58.0	77	50.8	0	0	---	0.00	29.859 
17:50	57.6	57.6	57.6	80	51.5	0	0	---	0.01	29.859 
17:55	57.3	57.3	57.3	81	51.5	0	0	---	0.01	29.859 
18:00	56.9	56.9	56.9	83	51.8	0	2	90	0.01	29.855 
18:05	56.6	56.6	56.6	84	51.8	0	2	90	0.00	29.855 
18:10	56.3	56.3	56.3	85	51.8	0	0	---	0.00	29.855 
18:15	56.2	56.2	56.2	86	52.1	0	0	---	0.00	29.859 
18:20	56.0	56.0	56.0	86	51.9	0	0	---	0.01	29.859 
18:25	55.9	55.9	55.9	87	52.1	0	0	---	0.00	29.859 
18:30	55.6	55.6	55.6	88	52.1	0	1	90	0.01	29.854 
18:35	55.4	55.4	55.4	88	51.9	0	0	---	0.01	29.854 
18:40	55.1	55.1	55.1	89	51.9	0	0	---	0.01	29.854 
18:45	55.0	55.0	55.0	89	51.8	0	1	90	0.00	29.853 
18:50	54.8	54.8	54.8	90	51.9	0	0	---	0.01	29.853 
18:55	54.7	54.7	54.7	90	51.8	0	0	---	0.01	29.853 
19:00	54.7	54.7	54.7	90	51.8	0	0	---	0.01	29.854 
19:05	54.5	54.5	54.5	91	51.9	0	0	---	0.00	29.854 
19:10	54.5	54.5	54.5	91	51.9	0	0	---	0.01	29.854 
19:15	54.4	54.4	54.4	91	51.8	0	0	---	0.01	29.860 
19:20	54.4	54.4	54.4	92	52.1	0	0	---	0.00	29.860 
19:25	54.4	54.4	54.4	92	52.1	0	0	---	0.01	29.860 
19:30	54.4	54.4	54.4	92	52.1	0	0	---	0.01	29.862 
19:35	54.4	54.4	54.4	92	52.1	0	0	---	0.01	29.862 
19:40	54.4	54.4	54.4	92	52.1	0	0	---	0.00	29.862 
19:45	54.4	54.4	54.4	93	52.4	0	0	---	0.01	29.862 
19:50	54.4	54.4	54.4	93	52.4	0	0	---	0.00	29.862 
19:55	54.2	54.2	54.2	93	52.2	0	0	---	0.01	29.862 
20:00	54.2	54.2	54.2	93	52.2	0	0	---	0.00	29.858 
20:05	54.2	54.2	54.2	93	52.2	0	0	---	0.01	29.858 
20:10	54.2	54.2	54.2	93	52.2	0	0	---	0.01	29.858 
20:15	54.2	54.2	54.2	93	52.2	0	0	---	0.01	29.845 
20:20	54.2	54.2	54.2	93	52.2	0	0	---	0.01	29.845 
20:25	54.1	54.1	54.1	94	52.4	0	0	---	0.01	29.845 
20:30	54.1	54.1	54.1	94	52.4	0	1	90	0.01	29.832 
20:35	53.9	53.9	53.9	94	52.2	0	1	90	0.01	29.832 
20:40	53.8	53.8	53.8	94	52.1	0	1	90	0.01	29.832 
20:45	53.6	53.6	53.6	94	51.9	0	1	90	0.02	29.830 
20:50	53.6	53.6	53.6	94	51.9	0	0	---	0.00	29.830 
20:55	53.6	53.6	53.6	94	51.9	0	0	---	0.01	29.830 
21:00	53.6	53.6	53.6	94	51.9	0	0	---	0.01	29.830 
21:05	53.6	53.6	53.6	94	51.9	0	1	90	0.00	29.830 
21:10	53.6	53.6	53.6	95	52.2	0	0	---	0.01	29.830 
21:15	53.6	53.6	53.6	95	52.2	0	0	---	0.01	29.828 
21:20	53.5	53.5	53.5	95	52.1	0	0	---	0.01	29.828 
21:25	53.5	53.5	53.5	95	52.1	0	1	90	0.01	29.828 
21:30	53.5	53.5	53.5	95	52.1	0	0	---	0.01	29.828 
21:35	53.3	53.3	53.3	95	51.9	0	0	---	0.01	29.828 
21:40	53.3	53.3	53.3	95	51.9	0	0	---	0.00	29.828 
21:45	53.3	53.3	53.3	95	51.9	0	1	90	0.01	29.834 
21:50	53.3	53.3	53.3	95	51.9	0	2	112	0.00	29.834 
21:55	53.3	53.3	53.3	95	51.9	0	0	---	0.00	29.834 
22:00	53.2	53.2	53.2	95	51.8	0	0	---	0.01	29.829 
22:05	53.2	53.2	53.2	95	51.8	0	0	---	0.00	29.829 
22:10	53.2	53.2	53.2	95	51.8	0	0	---	0.00	29.829 
22:15	53.2	53.2	53.2	95	51.8	0	0	---	0.00	29.826 
22:20	53.1	53.1	53.1	95	51.7	0	1	112	0.00	29.826 
22:25	53.1	53.1	53.1	95	51.7	0	0	---	0.00	29.826 
22:30	53.1	53.1	53.1	95	51.7	0	0	---	0.01	29.821 
22:35	53.1	53.1	53.1	95	51.7	0	0	---	0.00	29.821 
22:40	52.9	52.9	52.9	95	51.5	0	1	112	0.00	29.821 
22:45	52.9	52.9	52.9	95	51.5	0	0	---	0.01	29.810 
22:50	52.8	52.8	52.8	95	51.4	0	0	---	0.00	29.810 
22:55	52.8	52.8	52.8	95	51.4	0	0	---	0.01	29.810 
23:00	52.8	52.8	52.8	96	51.7	0	0	---	0.00	29.812 
23:05	52.8	52.8	52.8	95	51.4	0	0	---	0.00	29.812 
23:10	52.8	52.8	52.8	95	51.4	0	0	---	0.00	29.812 
23:15	52.8	52.8	52.8	96	51.7	0	0	---	0.00	29.803 
23:20	52.8	52.8	52.8	96	51.7	0	0	---	0.00	29.803 
23:25	52.8	52.8	52.8	96	51.7	0	0	---	0.00	29.803 
23:30	52.6	52.6	52.6	96	51.5	0	0	---	0.00	29.794 
23:35	52.6	52.6	52.6	96	51.5	0	1	112	0.01	29.794 
23:40	52.6	52.6	52.6	96	51.5	0	0	---	0.00	29.794 
23:45	52.6	52.6	52.6	96	51.5	0	0	---	0.00	29.800 
23:50	52.6	52.6	52.6	96	51.5	0	0	---	0.00	29.800 
23:55	52.6	52.6	52.6	96	51.5	0	0	---	0.00	29.800 

CoCoRaHS
IN-AL-39
A2 Web Hosting
Creative Commons License
GoDaddy
search engine by freefind advanced

loaded 2018-11-12 15:13:53 • last modified 2010-11-18 10:43:29
Privacy PolicyDisclaimer
• wx.awcolley.com is powered by PmWiki v.2002016 •
• all content (unless otherwise noted) © 2018 A W Colley